createdAt,value
2022-11-16T00:02:00.048Z,8.63
2022-11-16T00:04:28.531Z,10.20
2022-11-16T00:06:57.449Z,9.63
2022-11-16T00:09:28.558Z,8.68
2022-11-16T00:11:58.112Z,7.22
2022-11-16T00:14:27.268Z,9.48
2022-11-16T00:16:55.771Z,7.93
2022-11-16T00:19:26.186Z,9.85
2022-11-16T00:21:54.716Z,9.13
2022-11-16T00:24:23.582Z,9.23
2022-11-16T00:26:52.057Z,7.53
2022-11-16T00:29:21.231Z,10.57
2022-11-16T00:31:49.890Z,7.93
2022-11-16T00:34:18.231Z,8.02
2022-11-16T00:36:48.125Z,9.25
2022-11-16T00:39:17.129Z,10.40
2022-11-16T00:41:47.538Z,10.48
2022-11-16T00:44:15.848Z,9.27
2022-11-16T00:46:44.525Z,8.68
2022-11-16T00:49:12.814Z,7.53
2022-11-16T00:51:41.136Z,8.57
2022-11-16T00:54:11.794Z,7.88
2022-11-16T00:56:40.628Z,9.77
2022-11-16T00:59:08.999Z,9.23
2022-11-16T01:01:37.441Z,8.80
2022-11-16T01:04:06.036Z,10.93
2022-11-16T01:06:34.397Z,7.70
2022-11-16T01:09:02.840Z,10.55
2022-11-16T01:11:49.909Z,14.93
2022-11-16T01:14:18.235Z,10.57
2022-11-16T01:16:46.518Z,8.77
2022-11-16T01:19:14.842Z,10.45
2022-11-16T01:21:43.268Z,11.02
2022-11-16T01:24:11.609Z,10.43
2022-11-16T01:26:41.292Z,10.27
2022-11-16T01:29:09.991Z,12.32
2022-11-16T01:31:42.581Z,9.73
2022-11-16T01:34:11.081Z,11.70
2022-11-16T01:36:39.368Z,9.95
2022-11-16T01:39:08.570Z,12.15
2022-11-16T01:41:49.605Z,9.32
2022-11-16T01:44:37.411Z,11.35
2022-11-16T01:47:14.107Z,8.95
2022-11-16T01:49:44.558Z,10.75
2022-11-16T01:52:14.869Z,10.98
2022-11-16T01:54:44.115Z,12.07
2022-11-16T01:57:20.210Z,12.23
2022-11-16T02:00:00.609Z,12.15
2022-11-16T02:02:42.143Z,12.75
2022-11-16T02:05:22.039Z,11.10
2022-11-16T02:08:24.191Z,10.63
2022-11-16T02:11:08.428Z,10.57
2022-11-16T02:13:43.685Z,10.65
2022-11-16T02:16:16.455Z,11.77
2022-11-16T02:18:50.100Z,10.55
2022-11-16T02:21:22.504Z,10.52
2022-11-16T02:23:58.677Z,10.65
2022-11-16T02:26:36.924Z,14.65
2022-11-16T02:29:14.832Z,10.95
2022-11-16T02:31:48.726Z,11.48
2022-11-16T02:34:18.980Z,12.45
2022-11-16T02:36:49.129Z,11.98
2022-11-16T02:39:20.328Z,11.70
2022-11-16T02:41:51.830Z,16.63
2022-11-16T02:44:23.331Z,10.57
2022-11-16T02:46:54.523Z,13.50
2022-11-16T02:49:24.248Z,13.15
2022-11-16T02:51:53.515Z,11.80
2022-11-16T02:54:22.318Z,12.18
2022-11-16T02:56:56.017Z,11.13
2022-11-16T02:59:30.577Z,12.38
2022-11-16T03:02:02.176Z,11.77
2022-11-16T03:04:34.300Z,12.82
2022-11-16T03:07:04.035Z,15.07
2022-11-16T03:09:33.457Z,15.30
2022-11-16T03:12:01.486Z,12.77
2022-11-16T03:14:36.028Z,12.85
2022-11-16T03:17:05.244Z,11.32
2022-11-16T03:19:36.414Z,13.13
2022-11-16T03:22:08.096Z,13.73
2022-11-16T03:24:39.504Z,13.80
2022-11-16T03:27:08.891Z,12.50
2022-11-16T03:29:42.366Z,12.20
2022-11-16T03:32:14.580Z,12.45
2022-11-16T03:34:43.602Z,12.60
2022-11-16T03:37:12.369Z,10.68
2022-11-16T03:39:41.335Z,11.80
2022-11-16T03:42:13.934Z,13.50
2022-11-16T03:44:46.017Z,16.17
2022-11-16T03:47:14.522Z,14.82
2022-11-16T03:49:45.620Z,13.63
2022-11-16T03:52:15.754Z,16.25
2022-11-16T03:54:44.187Z,13.20
2022-11-16T03:57:17.971Z,12.73
2022-11-16T03:59:52.288Z,13.15
2022-11-16T04:02:20.644Z,14.43
2022-11-16T04:05:09.016Z,13.00
2022-11-16T04:07:55.230Z,14.02
2022-11-16T04:10:41.416Z,12.13
2022-11-16T04:13:28.020Z,12.85
2022-11-16T04:16:15.051Z,14.05
2022-11-16T04:19:03.002Z,11.65
2022-11-16T04:21:51.672Z,13.23
2022-11-16T04:24:23.339Z,15.10
2022-11-16T04:27:12.375Z,13.05
2022-11-16T04:29:41.718Z,14.50
2022-11-16T04:32:29.373Z,13.70
2022-11-16T04:35:16.731Z,14.15
2022-11-16T04:37:53.234Z,13.55
2022-11-16T04:40:29.343Z,14.15
2022-11-16T04:42:58.079Z,11.57
2022-11-16T04:45:45.324Z,12.77
2022-11-16T04:48:16.113Z,13.73
2022-11-16T04:50:44.695Z,12.55
2022-11-16T04:53:13.052Z,12.23
2022-11-16T04:56:00.687Z,13.05
2022-11-16T04:58:29.688Z,12.57
2022-11-16T05:00:58.055Z,13.98
2022-11-16T05:03:27.762Z,12.70
2022-11-16T05:05:56.098Z,12.30
2022-11-16T05:08:25.373Z,10.98
2022-11-16T05:10:55.117Z,13.82
2022-11-16T05:13:23.635Z,12.48
2022-11-16T05:15:53.287Z,14.85
2022-11-16T05:18:21.616Z,15.50
2022-11-16T05:21:02.351Z,16.83
2022-11-16T05:23:53.398Z,17.88
2022-11-16T05:26:24.241Z,16.20
2022-11-16T05:28:53.572Z,16.63
2022-11-16T05:31:22.499Z,15.85
2022-11-16T05:33:50.937Z,17.60
2022-11-16T05:36:22.397Z,17.80
2022-11-16T05:38:55.987Z,15.90
2022-11-16T05:41:26.630Z,16.08
2022-11-16T05:43:55.899Z,17.20
2022-11-16T05:46:24.747Z,17.20
2022-11-16T05:48:54.671Z,17.27
2022-11-16T05:51:24.599Z,16.60
2022-11-16T05:53:54.594Z,15.85
2022-11-16T05:56:24.654Z,18.13
2022-11-16T05:58:55.066Z,19.85
2022-11-16T06:01:23.731Z,17.58
2022-11-16T06:03:52.721Z,20.02
2022-11-16T06:06:21.324Z,17.48
2022-11-16T06:08:52.746Z,14.45
2022-11-16T06:11:28.288Z,15.55
2022-11-16T06:14:00.376Z,17.55
2022-11-16T06:16:28.754Z,17.75
2022-11-16T06:18:57.129Z,16.30
2022-11-16T06:21:25.632Z,17.90
2022-11-16T06:23:56.478Z,15.55
2022-11-16T06:26:24.768Z,17.02
2022-11-16T06:28:54.781Z,17.25
2022-11-16T06:31:24.170Z,16.27
2022-11-16T06:33:52.510Z,17.00
2022-11-16T06:36:25.051Z,17.98
2022-11-16T06:38:53.639Z,21.77
2022-11-16T06:41:24.651Z,21.40
2022-11-16T06:43:53.297Z,19.17
2022-11-16T06:46:26.331Z,19.67
2022-11-16T06:48:56.246Z,18.70
2022-11-16T06:51:25.267Z,16.65
2022-11-16T06:53:54.147Z,18.63
2022-11-16T06:56:24.647Z,18.67
2022-11-16T06:58:57.340Z,18.75
2022-11-16T07:05:34.643Z,18.13
2022-11-16T07:08:03.083Z,16.95
2022-11-16T07:10:31.436Z,16.83
2022-11-16T07:13:04.394Z,18.95
2022-11-16T07:15:33.302Z,19.00
2022-11-16T07:18:05.924Z,18.15
2022-11-16T07:20:35.301Z,17.45
2022-11-16T07:23:04.598Z,17.00
2022-11-16T07:25:34.125Z,17.35
2022-11-16T07:28:06.221Z,18.35
2022-11-16T07:30:35.461Z,20.63
2022-11-16T07:33:08.661Z,15.90
2022-11-16T07:35:55.843Z,16.80
2022-11-16T07:38:24.222Z,13.98
2022-11-16T07:40:52.518Z,15.75
2022-11-16T07:43:25.495Z,14.95
2022-11-16T07:46:45.224Z,15.52
2022-11-16T07:49:01.504Z,13.43
2022-11-16T07:51:48.626Z,17.00
2022-11-16T07:54:34.084Z,11.90
2022-11-16T07:57:02.431Z,11.23
2022-11-16T07:59:32.340Z,14.40
2022-11-16T08:02:02.630Z,14.38
2022-11-16T08:04:31.075Z,10.05
2022-11-16T08:07:00.376Z,13.98
2022-11-16T08:09:34.423Z,13.73
2022-11-16T08:12:02.749Z,13.48
2022-11-16T08:14:34.153Z,10.98
2022-11-16T08:17:04.897Z,13.35
2022-11-16T08:19:33.846Z,15.98
2022-11-16T08:22:03.550Z,10.55
2022-11-16T08:24:34.096Z,10.20
2022-11-16T08:27:02.451Z,11.70
2022-11-16T08:29:30.946Z,9.00
2022-11-16T08:32:01.556Z,10.30
2022-11-16T08:34:29.977Z,9.00
2022-11-16T08:37:01.734Z,11.75
2022-11-16T08:39:39.164Z,10.57
2022-11-16T08:42:07.494Z,13.63
2022-11-16T08:44:36.171Z,11.10
2022-11-16T08:47:10.462Z,9.90
2022-11-16T08:49:51.831Z,9.57
2022-11-16T08:52:22.135Z,10.98
2022-11-16T08:54:52.568Z,7.13
2022-11-16T08:57:20.870Z,9.65
2022-11-16T08:59:53.927Z,9.75
2022-11-16T09:02:25.441Z,9.43
2022-11-16T09:04:53.999Z,7.57
2022-11-16T09:07:22.971Z,7.53
2022-11-16T09:09:51.422Z,9.45
2022-11-16T09:12:19.875Z,8.32
2022-11-16T09:14:48.381Z,7.88
2022-11-16T09:17:22.797Z,7.53
2022-11-16T09:19:52.891Z,5.82
2022-11-16T09:22:21.219Z,7.68
2022-11-16T09:24:49.520Z,6.85
2022-11-16T09:27:17.958Z,7.45
2022-11-16T09:29:46.259Z,6.20
2022-11-16T09:32:14.578Z,7.00
2022-11-16T09:34:42.887Z,7.25
2022-11-16T09:37:12.719Z,6.50
2022-11-16T09:39:41.038Z,7.40
2022-11-16T09:42:19.995Z,9.60
2022-11-16T09:44:59.469Z,6.18
2022-11-16T09:47:36.580Z,10.02
2022-11-16T09:50:08.970Z,7.43
2022-11-16T09:52:40.298Z,6.07
2022-11-16T09:55:20.402Z,9.73
2022-11-16T09:57:49.098Z,13.75
2022-11-16T10:00:19.520Z,8.65
2022-11-16T10:02:49.818Z,7.63
2022-11-16T10:05:20.605Z,4.65
2022-11-16T10:07:51.972Z,10.40
2022-11-16T10:10:23.101Z,5.63
2022-11-16T10:12:53.743Z,6.20
2022-11-16T10:15:30.986Z,7.45
2022-11-16T10:18:05.523Z,7.85
2022-11-16T10:20:52.038Z,9.38
2022-11-16T10:23:28.286Z,6.53
2022-11-16T10:25:59.260Z,7.85
2022-11-16T10:28:40.018Z,7.93
2022-11-16T10:31:14.921Z,8.82
2022-11-16T10:33:45.732Z,7.60
2022-11-16T10:36:15.095Z,7.13
2022-11-16T10:38:45.738Z,6.32
2022-11-16T10:41:19.990Z,8.18
2022-11-16T10:43:49.705Z,5.15
2022-11-16T10:46:22.497Z,6.82
2022-11-16T10:48:55.890Z,8.88
2022-11-16T10:51:24.225Z,6.25
2022-11-16T10:53:55.587Z,4.40
2022-11-16T10:56:27.243Z,6.25
2022-11-16T10:58:57.181Z,7.07
2022-11-16T11:01:29.385Z,5.55
2022-11-16T11:03:59.790Z,6.22
2022-11-16T11:06:28.206Z,5.10
2022-11-16T11:09:15.541Z,5.45
2022-11-16T11:12:01.399Z,4.28
2022-11-16T11:14:32.406Z,4.28
2022-11-16T11:17:11.745Z,7.38
2022-11-16T11:19:40.082Z,4.57
2022-11-16T11:22:15.288Z,8.73
2022-11-16T11:24:49.895Z,7.25
2022-11-16T11:27:23.886Z,5.28
2022-11-16T11:29:53.892Z,9.27
2022-11-16T11:32:24.662Z,4.72
2022-11-16T11:34:54.430Z,5.32
2022-11-16T11:37:25.318Z,5.28
2022-11-16T11:40:07.729Z,6.32
2022-11-16T11:42:36.041Z,6.85
2022-11-16T11:45:07.311Z,8.57
2022-11-16T11:47:58.629Z,8.93
2022-11-16T11:50:28.897Z,6.78
2022-11-16T11:53:02.020Z,4.80
2022-11-16T11:55:32.678Z,4.22
2022-11-16T11:58:01.905Z,7.35
2022-11-16T12:00:34.910Z,7.60
2022-11-16T12:03:22.107Z,6.15
2022-11-16T12:06:14.448Z,6.65
2022-11-16T12:08:51.839Z,4.68
2022-11-16T12:11:24.462Z,8.73
2022-11-16T12:13:59.718Z,5.20
2022-11-16T12:16:30.950Z,8.48
2022-11-16T12:19:04.870Z,6.60
2022-11-16T12:21:39.284Z,7.50
2022-11-16T12:24:16.585Z,7.93
2022-11-16T12:26:49.845Z,6.32
2022-11-16T12:29:26.608Z,7.22
2022-11-16T12:32:03.668Z,7.47
2022-11-16T12:34:38.549Z,7.80
2022-11-16T12:37:12.559Z,4.72
2022-11-16T12:39:44.866Z,5.38
2022-11-16T12:42:31.095Z,3.97
2022-11-16T12:45:16.178Z,9.43
2022-11-16T12:47:52.522Z,9.18
2022-11-16T12:50:28.141Z,5.47
2022-11-16T12:53:13.479Z,4.72
2022-11-16T12:55:45.886Z,5.07
2022-11-16T12:58:20.231Z,7.28
2022-11-16T13:00:55.718Z,5.57
2022-11-16T13:03:29.893Z,5.72
2022-11-16T13:06:00.100Z,5.72
2022-11-16T13:08:34.298Z,9.05
2022-11-16T13:11:04.244Z,3.97
2022-11-16T13:13:37.321Z,8.50
2022-11-16T13:16:08.553Z,5.70
2022-11-16T13:18:39.829Z,7.35
2022-11-16T13:21:13.098Z,8.27
2022-11-16T13:23:46.040Z,8.05
2022-11-16T13:26:16.902Z,4.93
2022-11-16T13:28:52.456Z,4.18
2022-11-16T13:31:23.373Z,8.13
2022-11-16T13:34:01.474Z,5.75
2022-11-16T13:36:46.108Z,9.70
2022-11-16T13:39:21.528Z,4.88
2022-11-16T13:41:51.503Z,6.07
2022-11-16T13:44:31.321Z,8.65
2022-11-16T13:47:04.871Z,6.43
2022-11-16T13:49:34.839Z,11.65
2022-11-16T13:52:22.228Z,8.20
2022-11-16T13:54:53.440Z,9.63
2022-11-16T13:57:24.445Z,6.32
2022-11-16T13:59:57.907Z,7.40
2022-11-16T14:02:32.654Z,6.68
2022-11-16T14:05:01.495Z,7.18
2022-11-16T14:07:30.968Z,6.07
2022-11-16T14:09:59.395Z,6.20
2022-11-16T14:12:58.158Z,3.30
2022-11-16T14:15:33.843Z,8.23
2022-11-16T14:18:17.051Z,4.90
2022-11-16T14:20:52.019Z,4.75
2022-11-16T14:23:25.711Z,8.00
2022-11-16T14:25:57.163Z,10.57
2022-11-16T14:28:40.396Z,5.75
2022-11-16T14:31:15.198Z,6.53
2022-11-16T14:33:43.851Z,6.63
2022-11-16T14:36:13.491Z,7.40
2022-11-16T14:38:43.299Z,5.20
2022-11-16T14:41:14.886Z,6.65
2022-11-16T14:43:44.664Z,7.22
2022-11-16T14:46:18.908Z,8.38
2022-11-16T14:48:48.356Z,3.88
2022-11-16T14:51:20.964Z,5.13
2022-11-16T14:53:50.857Z,5.13
2022-11-16T14:56:20.060Z,8.77
2022-11-16T14:58:55.539Z,5.10
2022-11-16T15:01:25.137Z,5.35
2022-11-16T15:03:55.741Z,6.38
2022-11-16T15:06:26.634Z,8.88
2022-11-16T15:08:56.266Z,6.57
2022-11-16T15:11:27.103Z,6.63
2022-11-16T15:13:56.243Z,7.70
2022-11-16T15:16:24.531Z,7.35
2022-11-16T15:19:02.640Z,6.78
2022-11-16T15:21:32.376Z,12.02
2022-11-16T15:24:28.719Z,5.60
2022-11-16T15:26:49.477Z,5.40
2022-11-16T15:29:18.851Z,8.40
2022-11-16T15:31:47.671Z,6.35
2022-11-16T15:34:17.786Z,5.65
2022-11-16T15:36:47.876Z,9.48
2022-11-16T15:39:20.291Z,7.22
2022-11-16T15:41:49.258Z,6.32
2022-11-16T15:44:19.254Z,7.03
2022-11-16T15:46:49.375Z,6.78
2022-11-16T15:49:23.896Z,5.45
2022-11-16T15:51:53.630Z,5.90
2022-11-16T15:54:27.140Z,8.93
2022-11-16T15:56:56.978Z,11.70
2022-11-16T15:59:27.404Z,7.15
2022-11-16T16:01:56.136Z,7.85
2022-11-16T16:04:24.995Z,5.75
2022-11-16T16:06:55.591Z,9.15
2022-11-16T16:09:28.585Z,12.48
2022-11-16T16:11:58.035Z,7.40
2022-11-16T16:14:27.027Z,14.95
2022-11-16T16:16:55.935Z,8.43
2022-11-16T16:19:35.787Z,7.93
2022-11-16T16:22:06.187Z,9.65
2022-11-16T16:24:36.734Z,9.70
2022-11-16T16:27:10.702Z,7.85
2022-11-16T16:29:39.114Z,8.23
2022-11-16T16:32:07.609Z,9.73
2022-11-16T16:34:39.300Z,11.07
2022-11-16T16:37:13.191Z,6.97
2022-11-16T16:39:42.027Z,8.15
2022-11-16T16:42:11.425Z,9.60
2022-11-16T16:44:39.791Z,7.80
2022-11-16T16:47:08.097Z,9.68
2022-11-16T16:49:36.643Z,9.18
2022-11-16T16:52:05.043Z,9.40
2022-11-16T16:54:34.676Z,13.77
2022-11-16T16:57:03.009Z,9.43
2022-11-16T16:59:31.500Z,7.60
2022-11-16T17:01:59.830Z,8.38
2022-11-16T17:04:28.185Z,7.50
2022-11-16T17:06:56.533Z,7.80
2022-11-16T17:09:24.891Z,7.50
2022-11-16T17:11:54.542Z,7.70
2022-11-16T17:14:24.417Z,11.20
2022-11-16T17:16:52.773Z,7.95
2022-11-16T17:19:21.156Z,9.30
2022-11-16T17:21:49.470Z,9.45
2022-11-16T17:24:17.734Z,6.70
2022-11-16T17:26:48.157Z,8.15
2022-11-16T17:29:18.086Z,8.95
2022-11-16T17:31:48.754Z,7.90
2022-11-16T17:34:17.033Z,8.05
2022-11-16T17:36:45.791Z,9.60
2022-11-16T17:39:14.233Z,8.30
2022-11-16T17:41:42.515Z,10.32
2022-11-16T17:44:10.987Z,12.80
2022-11-16T17:46:40.632Z,9.63
2022-11-16T17:49:08.914Z,12.13
2022-11-16T17:51:37.247Z,14.88
2022-11-16T17:54:05.689Z,11.35
2022-11-16T17:56:33.988Z,9.10
2022-11-16T17:59:02.391Z,9.82
2022-11-16T18:01:31.205Z,6.25
2022-11-16T18:04:01.426Z,9.27
2022-11-16T18:06:29.814Z,10.55
2022-11-16T18:08:58.507Z,10.73
2022-11-16T18:11:27.498Z,6.90
2022-11-16T18:13:56.325Z,10.10
2022-11-16T18:16:25.156Z,7.28
2022-11-16T18:18:57.445Z,9.95
2022-11-16T18:21:27.340Z,7.90
2022-11-16T18:23:55.715Z,8.13
2022-11-16T18:26:24.576Z,9.00
2022-11-16T18:28:53.698Z,11.27
2022-11-16T18:31:23.046Z,10.85
2022-11-16T18:33:51.979Z,21.13
2022-11-16T18:36:21.210Z,24.10
2022-11-16T18:38:50.863Z,48.40
2022-11-16T18:41:20.905Z,30.23
2022-11-16T18:43:50.347Z,98.55
2022-11-16T18:46:18.733Z,91.88
2022-11-16T18:48:47.459Z,19.17
2022-11-16T18:51:16.195Z,64.55
2022-11-16T18:53:44.549Z,87.63
2022-11-16T18:56:14.315Z,55.70
2022-11-16T18:58:50.304Z,18.00
2022-11-16T19:01:20.327Z,13.60
2022-11-16T19:03:48.719Z,18.83
2022-11-16T19:06:17.822Z,13.25
2022-11-16T19:08:51.819Z,9.50
2022-11-16T19:11:25.280Z,10.35
2022-11-16T19:13:55.027Z,10.65
2022-11-16T19:16:23.753Z,9.25
2022-11-16T19:18:52.169Z,10.73
2022-11-16T19:21:21.748Z,13.82
2022-11-16T19:23:50.958Z,12.00
2022-11-16T19:26:20.196Z,17.88
2022-11-16T19:28:51.000Z,8.38
2022-11-16T19:31:20.158Z,12.98
2022-11-16T19:33:48.484Z,11.30
2022-11-16T19:36:17.740Z,9.82
2022-11-16T19:38:47.207Z,8.07
2022-11-16T19:41:16.225Z,9.10
2022-11-16T19:43:44.523Z,6.20
2022-11-16T19:46:16.379Z,7.13
2022-11-16T19:48:45.644Z,10.35
2022-11-16T19:51:14.689Z,8.20
2022-11-16T19:53:43.507Z,9.45
2022-11-16T19:56:12.552Z,9.93
2022-11-16T19:58:40.839Z,11.27
2022-11-16T20:01:09.977Z,9.88
2022-11-16T20:03:40.325Z,12.32
2022-11-16T20:06:09.634Z,8.93
2022-11-16T20:08:38.165Z,11.18
2022-11-16T20:11:13.192Z,9.02
2022-11-16T20:13:41.987Z,9.98
2022-11-16T20:16:10.903Z,10.73
2022-11-16T20:18:41.055Z,7.75
2022-11-16T20:21:10.879Z,9.35
2022-11-16T20:23:39.167Z,5.82
2022-11-16T20:26:08.164Z,9.75
2022-11-16T20:28:37.027Z,7.45
2022-11-16T20:31:05.967Z,6.40
2022-11-16T20:33:34.792Z,8.45
2022-11-16T20:36:05.318Z,8.02
2022-11-16T20:38:34.210Z,6.07
2022-11-16T20:41:08.995Z,7.47
2022-11-16T20:43:39.136Z,7.85
2022-11-16T20:46:07.693Z,9.07
2022-11-16T20:48:36.005Z,5.15
2022-11-16T20:51:05.881Z,5.18
2022-11-16T20:53:34.430Z,7.25
2022-11-16T20:56:03.322Z,8.68
2022-11-16T20:58:31.913Z,6.50
2022-11-16T21:01:01.674Z,6.68
2022-11-16T21:03:30.026Z,7.03
2022-11-16T21:05:58.465Z,7.05
2022-11-16T21:08:29.509Z,5.75
2022-11-16T21:10:58.175Z,5.28
2022-11-16T21:13:44.046Z,7.43
2022-11-16T21:16:13.699Z,8.35
2022-11-16T21:18:42.337Z,7.43
2022-11-16T21:21:12.119Z,9.52
2022-11-16T21:23:43.007Z,8.45
2022-11-16T21:26:12.878Z,8.80
2022-11-16T21:28:44.502Z,7.60
2022-11-16T21:31:13.498Z,8.35
2022-11-16T21:33:41.917Z,6.88
2022-11-16T21:36:11.931Z,9.55
2022-11-16T21:38:41.641Z,7.88
2022-11-16T21:41:11.224Z,9.32
2022-11-16T21:43:44.168Z,7.28
2022-11-16T21:46:13.180Z,6.93
2022-11-16T21:48:41.615Z,6.47
2022-11-16T21:51:10.883Z,7.03
2022-11-16T21:53:39.429Z,8.07
2022-11-16T21:56:11.220Z,8.15
2022-11-16T21:58:40.056Z,9.05
2022-11-16T22:01:08.434Z,5.78
2022-11-16T22:03:37.404Z,5.53
2022-11-16T22:06:24.785Z,7.63
2022-11-16T22:08:53.112Z,7.25
2022-11-16T22:11:22.970Z,5.85
2022-11-16T22:13:51.743Z,5.13
2022-11-16T22:16:21.321Z,6.75
2022-11-16T22:18:49.613Z,6.95
2022-11-16T22:21:17.926Z,6.20
2022-11-16T22:23:46.224Z,7.25
2022-11-16T22:26:14.942Z,8.00
2022-11-16T22:28:44.722Z,7.53
2022-11-16T22:31:13.837Z,7.63
2022-11-16T22:33:42.381Z,6.43
2022-11-16T22:36:11.097Z,9.63
2022-11-16T22:38:39.574Z,6.05
2022-11-16T22:41:07.955Z,7.43
2022-11-16T22:43:37.442Z,8.13
2022-11-16T22:46:07.741Z,6.28
2022-11-16T22:48:37.088Z,6.88
2022-11-16T22:51:09.270Z,9.35
2022-11-16T22:53:38.092Z,6.93
2022-11-16T22:56:07.563Z,7.63
2022-11-16T22:58:36.224Z,7.88
2022-11-16T23:01:04.548Z,6.70
2022-11-16T23:03:34.637Z,8.43
2022-11-16T23:06:03.666Z,8.93
2022-11-16T23:08:31.982Z,7.93
2022-11-16T23:11:18.706Z,10.82
2022-11-16T23:14:04.604Z,7.35
2022-11-16T23:16:32.933Z,6.70
2022-11-16T23:19:02.737Z,8.68
2022-11-16T23:21:48.605Z,8.32
2022-11-16T23:24:34.951Z,6.15
2022-11-16T23:27:22.461Z,5.65
2022-11-16T23:29:51.017Z,8.00
2022-11-16T23:32:19.284Z,11.43
2022-11-16T23:34:48.928Z,6.85
2022-11-16T23:37:17.221Z,6.90
2022-11-16T23:39:45.512Z,5.60
2022-11-16T23:42:46.104Z,6.25
2022-11-16T23:45:14.550Z,8.82
2022-11-16T23:47:43.147Z,8.88
2022-11-16T23:50:12.839Z,5.75
2022-11-16T23:52:41.120Z,8.40
2022-11-16T23:55:10.036Z,6.32
2022-11-16T23:57:38.349Z,8.80
